Time;durP1;ratioP1;P1;durP2;ratioP2;P2;SDS_P1;SDS_P2;PMS_P1;PMS_P2;Temp;Humidity;BMP_temperature;BMP_pressure;BME280_temperature;BME280_humidity;BME280_pressure;Samples;Min_cycle;Max_cycle;Signal;HPM_P1;HPM_P2
2021/06/26 00:19:39;;;;;;;;;;;;;;;;;;;;;
2021/06/26 00:45:57;;;;;;;;;;;;;;;;;;;;;
2021/06/26 01:08:05;;;;;;;9.30;8.40;;;18.80;99.90;;;;;;4904745;28;20593;-81
2021/06/26 01:10:31;;;;;;;9.73;8.83;;;18.80;99.90;;;;;;5034807;28;20575;-81
2021/06/26 01:12:57;;;;;;;10.60;9.63;;;18.80;99.90;;;;;;5017147;28;20675;-81
2021/06/26 01:15:23;;;;;;;10.10;9.10;;;18.80;99.90;;;;;;5039815;28;20610;-80
2021/06/26 01:17:49;;;;;;;9.80;9.00;;;18.80;99.90;;;;;;5048596;28;20162;-79
2021/06/26 01:20:16;;;;;;;10.60;9.53;;;18.70;99.90;;;;;;5024743;28;20575;-81
2021/06/26 01:22:47;;;;;;;10.63;9.33;;;18.70;99.90;;;;;;5025230;28;20192;-80
2021/06/26 01:25:21;;;;;;;10.73;9.63;;;18.70;99.90;;;;;;5043158;28;20608;-79
2021/06/26 01:27:50;;;;;;;11.13;10.03;;;18.70;99.90;;;;;;5045168;28;20610;-80
2021/06/26 01:30:21;;;;;;;11.23;10.13;;;18.70;99.90;;;;;;5040813;28;20607;-80
2021/06/26 01:32:47;;;;;;;11.00;10.00;;;18.70;99.90;;;;;;5020452;28;20622;-81
2021/06/26 01:35:12;;;;;;;10.60;9.60;;;18.70;99.90;;;;;;4988257;28;20612;-81
2021/06/26 01:37:40;;;;;;;9.93;9.13;;;18.70;99.90;;;;;;5018685;28;20181;-81
2021/06/26 01:40:07;;;;;;;10.80;9.70;;;18.60;99.90;;;;;;5019282;28;20181;-80
2021/06/26 01:42:33;;;;;;;11.77;10.53;;;18.60;99.90;;;;;;5035756;28;21334;-79
2021/06/26 01:44:58;;;;;;;11.30;10.10;;;18.60;99.90;;;;;;5018673;28;20608;-79
2021/06/26 01:47:24;;;;;;;17.07;11.23;;;18.60;99.90;;;;;;5034294;28;20253;-80
2021/06/26 01:49:50;;;;;;;11.03;10.00;;;18.60;99.90;;;;;;5017396;28;20162;-81
2021/06/26 01:52:16;;;;;;;11.57;10.47;;;18.50;99.90;;;;;;5034676;28;20286;-80
2021/06/26 01:54:41;;;;;;;11.33;10.27;;;18.50;99.90;;;;;;5034625;28;20192;-81
2021/06/26 01:57:09;;;;;;;10.90;9.80;;;18.50;99.90;;;;;;5034731;28;20169;-80
2021/06/26 01:59:35;;;;;;;12.50;11.20;;;18.50;99.90;;;;;;5036510;28;20178;-79
2021/06/26 02:02:03;;;;;;;11.27;10.17;;;18.50;99.90;;;;;;5036102;28;20642;-80
2021/06/26 02:04:28;;;;;;;12.33;11.13;;;18.50;99.90;;;;;;5019572;28;20605;-80
2021/06/26 02:06:57;;;;;;;11.53;10.33;;;18.50;99.90;;;;;;5036058;28;20577;-80
2021/06/26 02:09:22;;;;;;;12.23;11.03;;;18.50;99.90;;;;;;5036246;28;20208;-80
2021/06/26 02:11:48;;;;;;;13.10;11.90;;;18.50;99.90;;;;;;5035967;28;20569;-81
2021/06/26 02:14:14;;;;;;;12.57;10.60;;;18.50;99.90;;;;;;5035540;28;20615;-80
2021/06/26 02:16:40;;;;;;;12.40;10.87;;;18.40;99.90;;;;;;5015683;28;20170;-80
2021/06/26 02:19:09;;;;;;;12.77;10.80;;;18.40;99.90;;;;;;5032074;28;20634;-80
2021/06/26 02:21:37;;;;;;;14.33;11.00;;;18.40;99.90;;;;;;5033172;28;20572;-80
2021/06/26 02:24:03;;;;;;;12.00;10.93;;;18.40;99.90;;;;;;5015351;28;20666;-80
2021/06/26 02:26:29;;;;;;;11.93;10.73;;;18.40;99.90;;;;;;5015637;28;20217;-80
2021/06/26 02:28:55;;;;;;;10.93;9.97;;;18.40;99.90;;;;;;5015654;28;20577;-80
2021/06/26 02:31:20;;;;;;;12.40;11.07;;;18.40;99.90;;;;;;5018065;28;20186;-79
2021/06/26 02:33:46;;;;;;;11.20;10.03;;;18.40;99.90;;;;;;5017026;28;20554;-80
2021/06/26 02:36:12;;;;;;;12.07;10.90;;;18.30;99.90;;;;;;5035327;28;20166;-81
2021/06/26 02:38:37;;;;;;;13.37;10.90;;;18.30;99.90;;;;;;5033918;28;20180;-81
2021/06/26 02:41:03;;;;;;;12.83;11.53;;;18.30;99.90;;;;;;5018964;28;20181;-80
2021/06/26 02:43:29;;;;;;;13.33;10.83;;;18.30;99.90;;;;;;5018815;28;20201;-81
2021/06/26 02:45:55;;;;;;;12.77;11.57;;;18.30;99.90;;;;;;5018210;28;20208;-79
2021/06/26 02:48:20;;;;;;;12.40;11.20;;;18.30;99.90;;;;;;5036549;28;20188;-79
2021/06/26 02:50:46;;;;;;;13.67;12.47;;;18.20;99.90;;;;;;5004035;28;20178;-80
2021/06/26 02:53:12;;;;;;;12.50;11.20;;;18.20;99.90;;;;;;5020310;28;20204;-79
2021/06/26 02:55:38;;;;;;;12.33;11.27;;;18.20;99.90;;;;;;5033101;28;20197;-80
2021/06/26 02:58:04;;;;;;;12.67;11.47;;;18.20;99.90;;;;;;5033146;28;20182;-80
2021/06/26 03:00:29;;;;;;;11.90;10.80;;;18.20;99.90;;;;;;5033103;28;20560;-80
2021/06/26 03:02:55;;;;;;;15.03;12.10;;;18.20;99.90;;;;;;5014713;28;20209;-80
2021/06/26 03:05:21;;;;;;;13.30;11.90;;;18.20;99.90;;;;;;5015058;28;20186;-79
2021/06/26 03:07:52;;;;;;;13.40;12.10;;;18.20;99.90;;;;;;5032289;28;20714;-80
2021/06/26 03:10:19;;;;;;;14.07;12.77;;;18.20;99.90;;;;;;5032844;28;20162;-80
2021/06/26 03:12:45;;;;;;;13.70;12.50;;;18.20;99.90;;;;;;5032835;28;20569;-81
2021/06/26 03:15:12;;;;;;;12.30;11.10;;;18.20;99.90;;;;;;5014617;28;20600;-80
2021/06/26 03:17:38;;;;;;;12.10;10.90;;;18.20;99.90;;;;;;5032283;28;20632;-80
2021/06/26 03:20:05;;;;;;;13.63;12.23;;;18.20;99.90;;;;;;5014640;28;20585;-80
2021/06/26 03:22:31;;;;;;;13.10;11.77;;;18.20;99.90;;;;;;5031067;28;20201;-79
2021/06/26 03:24:56;;;;;;;12.53;11.33;;;18.20;99.90;;;;;;5032307;28;20657;-79
2021/06/26 03:27:22;;;;;;;12.80;11.40;;;18.20;99.90;;;;;;5031283;28;20580;-80
2021/06/26 03:29:48;;;;;;;11.97;10.87;;;18.20;99.90;;;;;;5030908;28;20528;-80
2021/06/26 03:32:13;;;;;;;11.80;10.60;;;18.20;99.90;;;;;;5031641;28;20315;-79
2021/06/26 03:34:39;;;;;;;12.00;10.83;;;18.20;99.90;;;;;;5031130;28;20189;-81
2021/06/26 03:37:05;;;;;;;11.97;10.40;;;18.20;99.90;;;;;;5014603;28;20173;-81
2021/06/26 03:39:31;;;;;;;11.27;10.33;;;18.20;99.90;;;;;;5031955;28;20668;-81
2021/06/26 03:41:56;;;;;;;10.63;9.53;;;18.20;99.90;;;;;;5030984;28;20576;-80
2021/06/26 03:44:22;;;;;;;11.70;10.57;;;18.10;99.90;;;;;;5030571;28;20197;-80
2021/06/26 03:46:48;;;;;;;11.90;10.70;;;18.10;99.90;;;;;;5003888;28;20180;-81
2021/06/26 03:49:14;;;;;;;10.93;9.93;;;18.10;99.90;;;;;;5021402;28;20176;-81
2021/06/26 03:51:42;;;;;;;11.67;10.60;;;18.10;99.90;;;;;;5015531;28;20177;-80
2021/06/26 03:54:08;;;;;;;11.17;10.20;;;18.10;99.90;;;;;;5040626;28;20220;-80
2021/06/26 03:56:33;;;;;;;10.03;9.13;;;18.10;99.90;;;;;;5024900;28;20618;-81
2021/06/26 03:59:00;;;;;;;11.40;10.30;;;18.10;99.90;;;;;;5014198;28;20192;-80
2021/06/26 04:01:26;;;;;;;9.70;8.87;;;18.10;99.90;;;;;;5033559;28;20598;-80
2021/06/26 04:03:53;;;;;;;10.10;9.20;;;18.10;99.90;;;;;;5019208;28;20662;-80
2021/06/26 04:06:19;;;;;;;10.83;9.93;;;18.10;99.90;;;;;;5019085;28;20577;-79
2021/06/26 04:08:44;;;;;;;9.20;8.40;;;18.10;99.90;;;;;;5012828;28;20573;-80
2021/06/26 04:11:10;;;;;;;10.30;9.40;;;18.00;99.90;;;;;;4978416;28;20185;-80
2021/06/26 04:13:36;;;;;;;10.53;9.50;;;18.10;99.90;;;;;;5027743;28;20170;-80
2021/06/26 04:16:04;;;;;;;10.17;9.27;;;18.00;99.90;;;;;;4994390;28;20578;-80
2021/06/26 04:18:29;;;;;;;10.30;9.30;;;18.00;99.90;;;;;;5011822;28;20273;-80
2021/06/26 04:20:55;;;;;;;8.53;7.80;;;18.10;99.90;;;;;;4994510;28;20683;-80
2021/06/26 04:23:21;;;;;;;12.53;11.23;;;18.10;99.90;;;;;;4996194;28;20206;-80
2021/06/26 04:25:48;;;;;;;10.83;9.70;;;18.10;99.90;;;;;;5016225;28;20193;-80
2021/06/26 04:28:14;;;;;;;10.37;9.47;;;18.10;99.90;;;;;;5011571;28;20566;-80
2021/06/26 04:30:46;;;;;;;9.37;8.57;;;18.10;99.90;;;;;;4994365;28;20573;-81
2021/06/26 04:33:14;;;;;;;9.60;8.70;;;18.20;99.90;;;;;;5011860;28;20628;-81
2021/06/26 04:35:40;;;;;;;10.70;9.70;;;18.30;99.90;;;;;;5012001;28;20600;-81
2021/06/26 04:38:05;;;;;;;11.50;9.30;;;18.30;99.90;;;;;;5011603;28;20174;-80
2021/06/26 04:40:31;;;;;;;15.40;9.37;;;18.40;99.90;;;;;;5011666;28;20178;-81
2021/06/26 04:42:57;;;;;;;9.60;8.80;;;18.50;99.90;;;;;;4994172;28;21223;-79
2021/06/26 04:45:25;;;;;;;12.30;8.53;;;18.60;99.90;;;;;;5014226;28;20198;-80
2021/06/26 04:47:51;;;;;;;9.47;8.63;;;18.60;99.90;;;;;;4997746;28;20178;-80
2021/06/26 04:50:20;;;;;;;10.23;9.27;;;18.70;99.90;;;;;;5015191;28;20580;-79
2021/06/26 04:52:47;;;;;;;10.67;9.40;;;18.80;99.90;;;;;;5014133;28;20186;-80
2021/06/26 04:55:13;;;;;;;11.03;10.00;;;18.80;99.90;;;;;;4997729;28;20722;-80
2021/06/26 04:57:41;;;;;;;12.53;10.47;;;18.90;99.90;;;;;;5014989;28;20717;-81
2021/06/26 05:00:08;;;;;;;12.90;10.40;;;18.90;99.90;;;;;;5014920;28;20605;-80
2021/06/26 05:02:34;;;;;;;14.17;8.90;;;19.00;99.90;;;;;;4997735;28;21080;-81
2021/06/26 05:04:59;;;;;;;10.67;9.77;;;19.00;99.90;;;;;;4997207;28;20716;-81
2021/06/26 05:07:25;;;;;;;11.20;10.20;;;19.00;99.90;;;;;;4997572;28;20175;-81
2021/06/26 05:09:51;;;;;;;10.93;9.70;;;19.00;99.90;;;;;;5014887;28;20554;-81
2021/06/26 05:12:17;;;;;;;9.90;9.00;;;19.00;99.90;;;;;;5014958;28;20174;-81
2021/06/26 05:14:45;;;;;;;10.60;9.63;;;19.00;99.90;;;;;;5013338;28;20202;-80
2021/06/26 05:17:11;;;;;;;11.00;10.00;;;19.00;99.90;;;;;;5014705;28;20195;-80
2021/06/26 05:19:36;;;;;;;9.70;8.80;;;19.00;99.90;;;;;;5014619;28;20619;-82
2021/06/26 05:22:03;;;;;;;10.23;9.37;;;19.10;99.90;;;;;;5014861;28;20220;-80
2021/06/26 05:24:28;;;;;;;10.50;9.60;;;19.10;99.90;;;;;;4997282;28;20598;-80
2021/06/26 05:26:54;;;;;;;9.83;8.93;;;19.10;99.90;;;;;;5013519;28;20612;-80
2021/06/26 05:29:20;;;;;;;10.97;9.87;;;19.10;99.90;;;;;;4996900;28;20167;-79
2021/06/26 05:31:46;;;;;;;10.80;9.87;;;19.10;99.90;;;;;;4997072;28;20229;-81
2021/06/26 05:34:14;;;;;;;10.90;9.07;;;19.00;99.90;;;;;;5014303;28;20182;-80
2021/06/26 05:36:40;;;;;;;10.30;9.40;;;19.00;99.90;;;;;;5013112;28;20631;-80
2021/06/26 05:39:06;;;;;;;12.30;11.03;;;19.00;99.90;;;;;;5014647;28;20569;-82
2021/06/26 05:41:32;;;;;;;12.33;11.00;;;19.10;99.90;;;;;;5014446;28;20178;-81
2021/06/26 05:43:57;;;;;;;10.63;9.53;;;19.20;99.90;;;;;;5014330;28;20610;-81
2021/06/26 05:46:23;;;;;;;9.50;8.60;;;19.30;99.90;;;;;;5014214;28;20197;-80
2021/06/26 05:48:49;;;;;;;10.90;9.80;;;19.60;99.90;;;;;;4996373;28;20185;-80
2021/06/26 05:51:16;;;;;;;9.07;8.37;;;20.00;99.90;;;;;;4996764;28;20250;-80
2021/06/26 05:53:43;;;;;;;10.37;9.20;;;20.30;99.90;;;;;;5013746;28;20304;-79
2021/06/26 05:56:09;;;;;;;10.70;9.20;;;20.40;99.90;;;;;;5012292;28;20596;-81
2021/06/26 05:58:38;;;;;;;9.30;8.40;;;20.80;99.90;;;;;;5012255;28;21156;-79
2021/06/26 06:01:11;;;;;;;9.50;8.57;;;21.50;99.90;;;;;;5013190;28;20936;-78
2021/06/26 06:03:38;;;;;;;9.50;8.70;;;22.40;99.90;;;;;;5029010;28;20997;-79
2021/06/26 06:06:07;;;;;;;9.57;8.67;;;23.30;99.90;;;;;;5014698;28;20581;-79
2021/06/26 06:08:33;;;;;;;9.33;8.57;;;24.00;99.90;;;;;;5023584;28;20647;-79
2021/06/26 06:11:02;;;;;;;8.40;7.70;;;24.90;99.90;;;;;;4996477;28;21211;-79
2021/06/26 06:13:28;;;;;;;8.17;7.47;;;25.70;99.90;;;;;;5013687;28;20609;-79
2021/06/26 06:15:56;;;;;;;7.93;7.23;;;26.20;99.90;;;;;;5015228;28;20604;-78
2021/06/26 06:18:24;;;;;;;11.33;8.40;;;26.90;99.90;;;;;;5028681;28;20170;-78
2021/06/26 06:21:10;;;;;;;8.90;8.10;;;27.60;99.90;;;;;;5013578;28;20604;-79
2021/06/26 06:23:39;;;;;;;9.97;9.20;;;28.00;99.90;;;;;;5013276;28;21252;-79
2021/06/26 06:26:05;;;;;;;9.70;8.90;;;28.40;99.90;;;;;;4995898;28;21176;-80
2021/06/26 06:28:31;;;;;;;9.80;8.07;;;28.50;99.90;;;;;;5013236;28;20557;-79
2021/06/26 06:31:02;;;;;;;8.57;7.73;;;28.90;99.80;;;;;;4995656;28;20232;-79
2021/06/26 06:33:29;;;;;;;8.43;7.63;;;29.10;99.50;;;;;;5013125;28;20609;-79
2021/06/26 06:35:55;;;;;;;8.37;7.63;;;29.60;99.40;;;;;;5013010;28;21010;-78
2021/06/26 06:38:20;;;;;;;8.17;7.37;;;30.10;99.00;;;;;;5012711;28;20639;-79
2021/06/26 06:40:46;;;;;;;8.00;7.13;;;30.60;98.40;;;;;;5013091;28;20257;-79
2021/06/26 06:43:12;;;;;;;8.50;7.73;;;31.20;97.60;;;;;;5013060;28;20260;-80
2021/06/26 06:45:40;;;;;;;9.10;8.40;;;31.80;96.80;;;;;;5013099;28;20718;-80
2021/06/26 06:48:14;;;;;;;8.50;7.80;;;32.30;95.30;;;;;;4995059;28;20614;-79
2021/06/26 06:50:40;;;;;;;8.07;7.47;;;32.80;94.40;;;;;;4979420;28;20644;-80
2021/06/26 06:53:07;;;;;;;7.70;7.13;;;33.30;93.20;;;;;;4996119;28;20586;-79
2021/06/26 06:55:40;;;;;;;7.83;7.03;;;33.50;91.80;;;;;;4995490;28;20203;-79
2021/06/26 06:58:06;;;;;;;7.43;6.83;;;33.90;90.90;;;;;;5012647;28;20592;-78
2021/06/26 07:00:36;;;;;;;7.73;7.10;;;34.30;90.10;;;;;;4995598;28;21072;-79
2021/06/26 07:03:02;;;;;;;8.13;7.53;;;34.60;86.40;;;;;;5012761;28;20667;-79
2021/06/26 07:05:30;;;;;;;8.20;7.50;;;34.70;81.90;;;;;;4994793;28;20597;-80
2021/06/26 07:07:56;;;;;;;8.30;7.60;;;34.80;80.70;;;;;;5011654;28;20584;-79
2021/06/26 07:10:21;;;;;;;11.60;9.20;;;35.00;80.00;;;;;;4995225;28;20174;-79
2021/06/26 07:12:47;;;;;;;8.20;7.60;;;35.30;77.10;;;;;;4995004;28;20255;-79
2021/06/26 07:15:15;;;;;;;9.37;8.60;;;35.30;74.80;;;;;;5012518;28;20186;-79
2021/06/26 07:17:40;;;;;;;8.97;8.07;;;35.30;73.10;;;;;;5012622;28;20205;-79
2021/06/26 07:20:10;;;;;;;8.50;7.80;;;35.20;71.30;;;;;;5012251;28;20605;-79
2021/06/26 07:22:39;;;;;;;9.77;8.90;;;35.20;69.30;;;;;;4994743;28;20243;-79
2021/06/26 07:25:05;;;;;;;9.20;8.50;;;35.10;68.60;;;;;;5012345;28;20621;-79
2021/06/26 07:27:33;;;;;;;9.63;8.80;;;35.00;68.40;;;;;;5027669;28;20593;-79
2021/06/26 07:30:05;;;;;;;8.73;8.03;;;35.20;66.70;;;;;;4995182;28;20992;-80
2021/06/26 07:32:31;;;;;;;9.87;9.07;;;35.00;64.80;;;;;;5012394;28;20628;-80
2021/06/26 07:34:56;;;;;;;16.33;10.57;;;35.10;65.50;;;;;;5012405;28;20597;-80
2021/06/26 07:37:24;;;;;;;10.47;9.60;;;35.00;62.80;;;;;;4994500;28;20174;-79
2021/06/26 07:39:50;;;;;;;10.13;9.33;;;34.90;63.10;;;;;;5012255;28;20170;-79
2021/06/26 07:42:25;;;;;;;10.37;9.43;;;34.80;63.30;;;;;;5011530;28;21140;-79
2021/06/26 07:44:51;;;;;;;10.20;9.30;;;34.70;62.10;;;;;;5012469;28;20200;-80
2021/06/26 07:47:16;;;;;;;9.70;8.90;;;34.90;63.20;;;;;;5012079;28;20581;-80
2021/06/26 07:49:42;;;;;;;9.40;8.60;;;35.20;63.10;;;;;;4994448;28;20266;-80
2021/06/26 07:52:08;;;;;;;9.10;8.30;;;35.40;62.70;;;;;;5012718;28;20232;-79
2021/06/26 07:54:33;;;;;;;9.13;8.33;;;35.70;62.80;;;;;;5012576;28;20729;-80
2021/06/26 07:56:59;;;;;;;10.03;9.13;;;36.20;62.80;;;;;;5012430;28;20170;-80
2021/06/26 07:59:25;;;;;;;10.30;9.30;;;36.80;62.10;;;;;;5012664;28;20169;-80
2021/06/26 08:01:51;;;;;;;8.33;7.73;;;37.30;61.60;;;;;;5013096;28;20645;-80
2021/06/26 08:04:16;;;;;;;10.53;9.80;;;37.80;59.90;;;;;;5015048;28;20182;-79
2021/06/26 08:06:42;;;;;;;11.27;10.27;;;37.90;58.10;;;;;;4997388;28;20174;-81
2021/06/26 08:09:08;;;;;;;8.97;8.27;;;37.70;55.50;;;;;;4995059;28;20178;-80
2021/06/26 08:11:34;;;;;;;9.20;8.40;;;37.50;54.40;;;;;;5012710;28;20568;-80
2021/06/26 08:14:00;;;;;;;11.00;10.07;;;37.20;54.80;;;;;;5012536;28;20190;-81
2021/06/26 08:16:28;;;;;;;10.03;9.23;;;37.20;54.40;;;;;;5015027;28;20626;-80
2021/06/26 08:18:56;;;;;;;8.90;8.20;;;37.40;55.30;;;;;;5014485;28;20713;-79
2021/06/26 08:21:22;;;;;;;8.97;8.27;;;37.80;54.50;;;;;;4982840;28;20585;-79
2021/06/26 08:23:49;;;;;;;10.07;9.17;;;38.00;54.30;;;;;;5016770;28;20252;-82
2021/06/26 08:26:16;;;;;;;9.03;8.33;;;38.30;53.40;;;;;;5016888;28;20166;-80
2021/06/26 08:28:42;;;;;;;7.87;7.27;;;38.50;52.80;;;;;;5015315;28;20900;-81
2021/06/26 08:31:08;;;;;;;11.60;10.50;;;38.50;52.20;;;;;;4999528;28;20587;-83
2021/06/26 08:33:37;;;;;;;9.80;8.80;;;38.70;51.40;;;;;;5016683;28;20202;-82
2021/06/26 08:36:03;;;;;;;9.03;8.33;;;38.80;50.30;;;;;;5016500;28;20623;-83
2021/06/26 08:38:29;;;;;;;9.00;8.30;;;38.90;50.80;;;;;;5016333;28;20569;-84
2021/06/26 08:40:57;;;;;;;9.67;8.83;;;39.10;50.00;;;;;;4983301;28;20573;-83
2021/06/26 08:43:24;;;;;;;8.67;8.07;;;39.10;48.80;;;;;;4987044;28;20577;-83
2021/06/26 08:45:50;;;;;;;9.10;8.40;;;39.00;49.10;;;;;;5015051;28;20643;-83
2021/06/26 08:48:16;;;;;;;9.57;8.73;;;39.10;48.50;;;;;;4998373;28;20632;-82
2021/06/26 08:50:42;;;;;;;8.20;7.60;;;39.10;48.10;;;;;;5015896;28;20932;-82
2021/06/26 08:53:08;;;;;;;10.40;9.40;;;38.80;48.20;;;;;;5015768;28;20627;-82
2021/06/26 08:55:34;;;;;;;7.97;7.37;;;38.90;48.00;;;;;;4998028;28;20569;-83
2021/06/26 08:58:04;;;;;;;10.30;9.37;;;39.10;48.10;;;;;;5015233;28;20216;-82
2021/06/26 09:00:35;;;;;;;9.80;8.97;;;39.30;47.60;;;;;;5016546;28;20198;-84
2021/06/26 09:03:11;;;;;;;10.40;8.47;;;39.10;46.20;;;;;;5043406;28;20637;-83
2021/06/26 09:05:38;;;;;;;8.77;8.07;;;39.20;47.20;;;;;;5050276;28;20971;-83
2021/06/26 09:08:09;;;;;;;8.73;7.93;;;39.50;47.30;;;;;;5039107;28;21049;-82
2021/06/26 09:10:38;;;;;;;9.13;8.43;;;39.70;45.90;;;;;;5028505;28;20637;-82
2021/06/26 09:13:33;;;;;;;8.83;8.23;;;39.70;45.50;;;;;;5030276;28;20726;-82
2021/06/26 09:16:15;;;;;;;9.37;8.47;;;40.10;45.90;;;;;;5011512;28;20620;-82
2021/06/26 09:18:49;;;;;;;8.63;7.93;;;40.00;44.90;;;;;;5022855;28;20595;-82
2021/06/26 09:21:35;;;;;;;10.20;8.40;;;40.10;44.20;;;;;;5034963;28;20587;-82
2021/06/26 09:24:06;;;;;;;8.63;7.97;;;40.00;44.20;;;;;;5054162;28;20740;-83
2021/06/26 09:26:36;;;;;;;9.20;8.40;;;39.90;44.50;;;;;;5053737;28;20587;-82
2021/06/26 09:29:16;;;;;;;8.07;7.27;;;40.00;43.40;;;;;;5039134;28;20751;-82
2021/06/26 09:32:11;;;;;;;7.00;6.30;;;39.80;43.30;;;;;;5018230;28;20592;-82
2021/06/26 09:34:44;;;;;;;5.90;5.47;;;40.00;43.90;;;;;;5024316;28;21138;-82
2021/06/26 09:37:17;;;;;;;6.27;5.77;;;40.00;42.80;;;;;;5038563;28;21297;-80
2021/06/26 09:39:45;;;;;;;8.53;7.53;;;40.00;43.30;;;;;;5028274;28;20605;-81
2021/06/26 09:42:25;;;;;;;7.60;7.00;;;40.20;43.30;;;;;;5049731;28;20967;-80
2021/06/26 09:45:03;;;;;;;7.83;5.87;;;40.50;43.20;;;;;;5046020;28;20709;-81
2021/06/26 09:47:34;;;;;;;5.43;5.03;;;40.80;43.70;;;;;;5053042;28;20609;-81
2021/06/26 09:50:09;;;;;;;5.17;4.83;;;41.30;43.40;;;;;;5054208;28;20558;-81
2021/06/26 09:52:54;;;;;;;8.20;4.50;;;41.60;41.40;;;;;;5054214;28;21001;-81
2021/06/26 09:55:28;;;;;;;5.10;4.23;;;41.30;41.20;;;;;;5053101;28;20595;-80
2021/06/26 09:57:59;;;;;;;5.40;5.00;;;40.90;39.80;;;;;;5054369;28;20637;-80
2021/06/26 10:00:27;;;;;;;5.30;4.80;;;40.20;38.20;;;;;;5036230;28;20965;-81
2021/06/26 10:02:54;;;;;;;5.50;4.77;;;39.20;37.90;;;;;;5054196;28;21270;-80
2021/06/26 10:05:29;;;;;;;4.57;4.17;;;38.50;38.60;;;;;;5037127;28;21006;-82
2021/06/26 10:08:05;;;;;;;3.90;3.70;;;38.20;39.80;;;;;;5037084;28;21186;-80
2021/06/26 10:10:33;;;;;;;4.53;4.17;;;38.10;39.70;;;;;;5053868;28;20578;-81
2021/06/26 10:12:59;;;;;;;4.10;3.80;;;37.90;39.10;;;;;;5053400;28;21023;-81
2021/06/26 10:15:30;;;;;;;5.30;4.10;;;37.30;39.00;;;;;;5053497;28;20599;-81
2021/06/26 10:17:57;;;;;;;5.07;4.67;;;36.90;39.00;;;;;;5053570;28;20165;-81
2021/06/26 10:20:26;;;;;;;5.43;5.03;;;36.50;39.60;;;;;;5035494;28;20682;-81
2021/06/26 10:22:57;;;;;;;4.13;3.83;;;36.30;40.60;;;;;;5053512;28;20580;-81
2021/06/26 10:25:32;;;;;;;5.33;4.83;;;36.40;41.00;;;;;;5053416;28;20658;-82
2021/06/26 10:28:08;;;;;;;4.27;3.97;;;36.40;40.30;;;;;;5053076;28;20574;-81
2021/06/26 10:30:35;;;;;;;4.50;4.10;;;36.10;40.00;;;;;;5052082;28;20571;-81
2021/06/26 10:33:06;;;;;;;6.13;4.83;;;36.10;40.50;;;;;;5055248;28;20618;-81
2021/06/26 10:35:36;;;;;;;5.30;4.80;;;36.10;40.30;;;;;;5052795;28;20668;-81
2021/06/26 10:38:13;;;;;;;5.40;4.90;;;36.10;40.50;;;;;;5052721;28;20564;-80
2021/06/26 10:40:52;;;;;;;5.57;5.07;;;36.00;40.90;;;;;;5053032;28;20577;-81
2021/06/26 10:43:29;;;;;;;6.50;4.83;;;35.90;40.60;;;;;;5052091;28;20572;-81
2021/06/26 10:46:11;;;;;;;5.93;5.43;;;35.80;41.40;;;;;;5034873;28;20580;-81
2021/06/26 10:48:38;;;;;;;4.87;4.43;;;35.90;40.30;;;;;;5034531;28;20586;-81
2021/06/26 10:51:05;;;;;;;6.10;3.93;;;36.00;41.40;;;;;;5052817;28;20637;-80
2021/06/26 10:53:30;;;;;;;4.07;3.63;;;36.30;41.50;;;;;;5052743;28;20630;-82
2021/06/26 10:56:03;;;;;;;3.57;3.27;;;36.50;41.30;;;;;;5052486;28;20568;-81
2021/06/26 10:58:31;;;;;;;3.17;2.87;;;36.70;40.80;;;;;;5052532;28;20558;-82
2021/06/26 11:00:58;;;;;;;5.13;2.67;;;36.80;40.20;;;;;;5052551;28;21192;-82
2021/06/26 11:03:30;;;;;;;2.80;2.57;;;36.90;40.50;;;;;;5034558;28;20619;-81
2021/06/26 11:05:58;;;;;;;2.87;2.47;;;37.00;39.50;;;;;;5052775;28;20964;-81
2021/06/26 11:08:25;;;;;;;3.03;2.83;;;37.00;39.30;;;;;;5052766;28;20602;-80
2021/06/26 11:10:52;;;;;;;2.80;2.60;;;37.00;38.20;;;;;;5034696;28;20579;-81
2021/06/26 11:13:23;;;;;;;2.80;2.60;;;36.90;37.90;;;;;;5052429;28;20623;-81
2021/06/26 11:15:49;;;;;;;2.87;2.67;;;36.70;38.10;;;;;;5052122;28;21082;-81
2021/06/26 11:18:18;;;;;;;2.60;2.40;;;36.40;37.30;;;;;;5034190;28;20586;-81
2021/06/26 11:20:44;;;;;;;3.03;2.30;;;36.10;37.70;;;;;;5052223;28;21166;-81
2021/06/26 11:23:16;;;;;;;4.00;2.30;;;35.90;37.90;;;;;;5052173;28;20567;-81
2021/06/26 11:25:43;;;;;;;3.67;2.33;;;35.90;39.10;;;;;;5051827;28;20613;-80
2021/06/26 11:28:11;;;;;;;2.87;2.67;;;36.10;39.40;;;;;;5051812;28;20637;-81
2021/06/26 11:30:38;;;;;;;2.90;2.60;;;36.20;38.80;;;;;;5052037;28;20575;-80
2021/06/26 11:33:04;;;;;;;4.47;3.17;;;36.20;38.60;;;;;;5052089;28;20626;-80
2021/06/26 11:35:33;;;;;;;3.30;3.10;;;35.90;37.70;;;;;;5051914;28;20591;-80
2021/06/26 11:37:59;;;;;;;4.17;3.20;;;35.50;37.30;;;;;;5051646;28;20570;-81
2021/06/26 11:40:27;;;;;;;3.27;2.30;;;35.20;38.20;;;;;;5051027;28;20630;-81
2021/06/26 11:42:55;;;;;;;3.07;2.73;;;35.10;38.90;;;;;;5050615;28;20669;-81
2021/06/26 11:45:29;;;;;;;3.10;2.90;;;35.20;39.10;;;;;;5034566;28;20614;-81
2021/06/26 11:48:15;;;;;;;3.80;3.50;;;35.30;39.70;;;;;;5051943;28;21229;-81
2021/06/26 11:50:53;;;;;;;3.97;3.67;;;35.40;39.30;;;;;;5051948;28;20923;-81
2021/06/26 11:53:22;;;;;;;3.40;3.10;;;35.50;38.20;;;;;;5051416;28;20622;-81
2021/06/26 11:55:58;;;;;;;2.93;2.73;;;35.30;38.80;;;;;;5051533;28;20644;-80
2021/06/26 11:58:44;;;;;;;2.57;2.37;;;35.30;38.80;;;;;;5051788;28;20587;-81
2021/06/26 12:01:25;;;;;;;3.53;2.67;;;35.10;38.70;;;;;;5066166;22;20589;-84
2021/06/26 12:03:52;;;;;;;2.60;2.40;;;34.80;38.50;;;;;;5026907;28;20685;-84
2021/06/26 12:06:18;;;;;;;3.77;2.60;;;34.70;38.90;;;;;;5007506;28;21200;-85
2021/06/26 12:08:46;;;;;;;2.87;2.60;;;34.60;38.70;;;;;;5024957;28;20671;-85
2021/06/26 12:11:18;;;;;;;3.00;2.80;;;34.40;38.80;;;;;;5025076;28;20708;-84
2021/06/26 12:13:46;;;;;;;3.47;2.47;;;34.20;38.90;;;;;;5015955;28;20623;-84
2021/06/26 12:16:21;;;;;;;2.73;2.53;;;34.30;39.00;;;;;;5016072;28;20574;-85
2021/06/26 12:18:52;;;;;;;3.63;2.87;;;34.20;39.10;;;;;;5031790;28;20615;-85
2021/06/26 12:21:19;;;;;;;2.77;2.57;;;34.20;39.80;;;;;;5032524;28;20614;-85
2021/06/26 12:23:47;;;;;;;3.60;3.30;;;34.30;39.70;;;;;;5033125;28;20572;-85
2021/06/26 12:26:21;;;;;;;3.53;3.03;;;34.20;39.50;;;;;;5034152;28;20676;-84
2021/06/26 12:28:47;;;;;;;3.13;2.40;;;34.10;39.10;;;;;;4999133;28;21148;-85
2021/06/26 12:31:14;;;;;;;2.93;2.63;;;33.90;39.30;;;;;;5017005;28;20609;-84
2021/06/26 12:33:40;;;;;;;2.90;2.70;;;33.70;39.10;;;;;;5031219;28;20661;-84
2021/06/26 12:36:17;;;;;;;3.30;2.90;;;33.60;40.00;;;;;;5015744;28;20659;-84
2021/06/26 12:38:44;;;;;;;2.67;2.40;;;33.50;39.30;;;;;;5016918;28;21165;-84
2021/06/26 12:41:25;;;;;;;3.10;2.80;;;33.30;39.10;;;;;;5018363;28;21164;-84
2021/06/26 12:43:52;;;;;;;3.13;2.83;;;33.00;39.40;;;;;;5031563;28;20675;-84
2021/06/26 12:46:20;;;;;;;2.90;2.10;;;33.00;39.50;;;;;;5013869;28;20576;-83
2021/06/26 12:48:48;;;;;;;3.83;2.63;;;32.80;39.30;;;;;;5031227;28;20573;-83
2021/06/26 12:51:19;;;;;;;4.40;3.40;;;32.60;39.50;;;;;;5031266;28;20601;-83
2021/06/26 12:53:46;;;;;;;3.10;2.90;;;32.50;39.40;;;;;;5013740;28;20998;-83
2021/06/26 12:56:21;;;;;;;2.80;2.60;;;32.40;39.60;;;;;;5030276;28;20671;-83
2021/06/26 12:58:55;;;;;;;2.60;2.40;;;32.30;40.20;;;;;;5013616;28;20584;-83
2021/06/26 13:01:38;;;;;;;3.03;2.83;;;32.10;40.20;;;;;;5031419;28;20658;-83
2021/06/26 13:04:05;;;;;;;3.40;2.80;;;32.10;39.80;;;;;;5029952;28;20591;-83
2021/06/26 13:06:42;;;;;;;3.07;2.40;;;31.70;39.90;;;;;;5016388;28;20576;-83
2021/06/26 13:09:18;;;;;;;4.53;2.93;;;31.60;40.20;;;;;;5018514;28;20663;-83
2021/06/26 13:12:11;;;;;;;3.00;2.80;;;31.60;40.30;;;;;;5043236;28;20608;-83
2021/06/26 13:14:39;;;;;;;3.33;3.03;;;31.60;40.90;;;;;;5019683;28;20654;-83
2021/06/26 13:17:06;;;;;;;2.50;2.30;;;31.70;40.80;;;;;;5037735;28;20564;-83
2021/06/26 13:19:33;;;;;;;3.10;2.80;;;31.80;40.90;;;;;;5018690;28;20587;-82
2021/06/26 13:21:59;;;;;;;2.60;2.40;;;32.00;41.20;;;;;;5034473;28;20661;-82
2021/06/26 13:24:24;;;;;;;2.90;2.57;;;32.20;41.10;;;;;;5017095;28;20580;-83
2021/06/26 13:26:51;;;;;;;4.40;2.97;;;32.30;40.80;;;;;;5000252;28;20655;-83
2021/06/26 13:29:17;;;;;;;3.20;2.70;;;32.30;40.70;;;;;;5034521;28;20166;-83
2021/06/26 13:31:44;;;;;;;3.67;2.90;;;32.40;40.30;;;;;;5033373;28;20596;-83
2021/06/26 13:34:13;;;;;;;2.80;2.60;;;32.40;40.70;;;;;;5016457;28;21120;-83
2021/06/26 13:36:39;;;;;;;3.43;2.83;;;32.40;40.90;;;;;;5018618;28;20696;-83
2021/06/26 13:39:05;;;;;;;3.23;3.03;;;32.30;41.00;;;;;;5020510;28;20627;-83
2021/06/26 13:41:49;;;;;;;2.87;2.60;;;32.10;41.00;;;;;;5028592;28;20186;-84
2021/06/26 13:44:24;;;;;;;3.13;2.83;;;32.00;41.00;;;;;;5034446;28;20572;-84
2021/06/26 13:46:53;;;;;;;2.77;2.57;;;31.70;41.00;;;;;;5035816;28;21222;-84
2021/06/26 13:49:19;;;;;;;3.70;3.03;;;31.60;41.20;;;;;;5041195;28;20174;-82
2021/06/26 13:51:44;;;;;;;2.97;2.67;;;31.50;41.40;;;;;;5036694;28;20694;-83